sensor_id;sensor_type;location;lat;lon;timestamp;pressure;altitude;pressure_sealevel;temperature;humidity
73341;BME280;61578;52.002;5.468;2022-07-05T00:00:07;102065.44;;;13.58;76.88
73341;BME280;61578;52.002;5.468;2022-07-05T00:00:38;102062.94;;;13.55;77.33
73341;BME280;61578;52.002;5.468;2022-07-05T00:01:09;102073.34;;;13.59;76.68
73341;BME280;61578;52.002;5.468;2022-07-05T00:01:39;102071.53;;;13.60;76.84
73341;BME280;61578;52.002;5.468;2022-07-05T00:02:10;102074.28;;;13.58;76.41
73341;BME280;61578;52.002;5.468;2022-07-05T00:02:41;102053.84;;;13.43;76.82
73341;BME280;61578;52.002;5.468;2022-07-05T00:03:12;102069.31;;;13.52;76.60
73341;BME280;61578;52.002;5.468;2022-07-05T00:03:43;102075.41;;;13.54;76.95
73341;BME280;61578;52.002;5.468;2022-07-05T00:04:14;102059.75;;;13.48;77.18
73341;BME280;61578;52.002;5.468;2022-07-05T00:04:44;102036.63;;;13.33;77.07
73341;BME280;61578;52.002;5.468;2022-07-05T00:05:15;102065.72;;;13.53;76.93
73341;BME280;61578;52.002;5.468;2022-07-05T00:05:46;102072.06;;;13.51;76.95
73341;BME280;61578;52.002;5.468;2022-07-05T00:06:17;102065.88;;;13.50;77.30
73341;BME280;61578;52.002;5.468;2022-07-05T00:06:47;102060.53;;;13.50;77.09
73341;BME280;61578;52.002;5.468;2022-07-05T00:07:37;102061.63;;;13.46;77.04
73341;BME280;61578;52.002;5.468;2022-07-05T00:08:08;102068.63;;;13.49;77.52
73341;BME280;61578;52.002;5.468;2022-07-05T00:08:39;102051.31;;;13.40;77.05
73341;BME280;61578;52.002;5.468;2022-07-05T00:09:09;101982.91;;;12.92;77.24
73341;BME280;61578;52.002;5.468;2022-07-05T00:09:40;102022.16;;;13.21;77.00
73341;BME280;61578;52.002;5.468;2022-07-05T00:10:11;102060.19;;;13.41;77.30
73341;BME280;61578;52.002;5.468;2022-07-05T00:10:42;102055.09;;;13.36;77.31
73341;BME280;61578;52.002;5.468;2022-07-05T00:11:13;102046.50;;;13.31;77.43
73341;BME280;61578;52.002;5.468;2022-07-05T00:11:44;102069.06;;;13.41;77.81
73341;BME280;61578;52.002;5.468;2022-07-05T00:12:15;102040.47;;;13.27;77.98
73341;BME280;61578;52.002;5.468;2022-07-05T00:12:46;102065.44;;;13.42;77.94
73341;BME280;61578;52.002;5.468;2022-07-05T00:13:17;102069.16;;;13.40;77.70
73341;BME280;61578;52.002;5.468;2022-07-05T00:13:48;102067.34;;;13.40;77.36
73341;BME280;61578;52.002;5.468;2022-07-05T00:14:18;102054.44;;;13.33;77.73
73341;BME280;61578;52.002;5.468;2022-07-05T00:14:50;102068.28;;;13.39;77.34
73341;BME280;61578;52.002;5.468;2022-07-05T00:15:21;102019.28;;;13.09;77.88
73341;BME280;61578;52.002;5.468;2022-07-05T00:15:52;102069.22;;;13.38;77.70
73341;BME280;61578;52.002;5.468;2022-07-05T00:16:23;102063.97;;;13.37;77.74
73341;BME280;61578;52.002;5.468;2022-07-05T00:16:53;102071.03;;;13.38;77.79
73341;BME280;61578;52.002;5.468;2022-07-05T00:17:24;102065.78;;;13.36;77.88
73341;BME280;61578;52.002;5.468;2022-07-05T00:17:55;102056.47;;;13.27;77.96
73341;BME280;61578;52.002;5.468;2022-07-05T00:18:26;102065.78;;;13.36;77.46
73341;BME280;61578;52.002;5.468;2022-07-05T00:18:56;102064.84;;;13.37;78.06
73341;BME280;61578;52.002;5.468;2022-07-05T00:19:27;102064.25;;;13.32;77.84
73341;BME280;61578;52.002;5.468;2022-07-05T00:19:58;102062.09;;;13.39;78.30
73341;BME280;61578;52.002;5.468;2022-07-05T00:20:29;102070.00;;;13.40;78.10
73341;BME280;61578;52.002;5.468;2022-07-05T00:20:59;102058.13;;;13.30;77.58
73341;BME280;61578;52.002;5.468;2022-07-05T00:21:30;102069.47;;;13.34;77.23
73341;BME280;61578;52.002;5.468;2022-07-05T00:22:01;102049.50;;;13.25;77.55
73341;BME280;61578;52.002;5.468;2022-07-05T00:22:32;102073.78;;;13.36;77.87
73341;BME280;61578;52.002;5.468;2022-07-05T00:23:02;102072.06;;;13.35;77.52
73341;BME280;61578;52.002;5.468;2022-07-05T00:23:33;102055.69;;;13.25;77.44
73341;BME280;61578;52.002;5.468;2022-07-05T00:24:04;102055.53;;;13.29;77.20
73341;BME280;61578;52.002;5.468;2022-07-05T00:24:35;102063.31;;;13.33;77.48
73341;BME280;61578;52.002;5.468;2022-07-05T00:25:06;101918.03;;;12.44;77.82
73341;BME280;61578;52.002;5.468;2022-07-05T00:25:37;102069.66;;;13.31;77.74
73341;BME280;61578;52.002;5.468;2022-07-05T00:26:08;102059.50;;;13.21;77.55
73341;BME280;61578;52.002;5.468;2022-07-05T00:26:38;102069.03;;;13.25;77.91
73341;BME280;61578;52.002;5.468;2022-07-05T00:27:09;102068.63;;;13.17;78.07
73341;BME280;61578;52.002;5.468;2022-07-05T00:27:40;102064.75;;;13.23;78.49
73341;BME280;61578;52.002;5.468;2022-07-05T00:28:10;102065.59;;;13.23;78.33
73341;BME280;61578;52.002;5.468;2022-07-05T00:28:43;102065.72;;;13.22;77.93
73341;BME280;61578;52.002;5.468;2022-07-05T00:29:14;102071.91;;;13.22;77.98
73341;BME280;61578;52.002;5.468;2022-07-05T00:29:45;102051.91;;;13.14;77.64
73341;BME280;61578;52.002;5.468;2022-07-05T00:30:16;102053.78;;;13.12;77.92
73341;BME280;61578;52.002;5.468;2022-07-05T00:30:46;102040.97;;;13.03;77.84
73341;BME280;61578;52.002;5.468;2022-07-05T00:31:17;102055.59;;;13.11;78.26
73341;BME280;61578;52.002;5.468;2022-07-05T00:31:48;102060.00;;;13.12;78.21
73341;BME280;61578;52.002;5.468;2022-07-05T00:32:19;102065.16;;;13.15;78.33
73341;BME280;61578;52.002;5.468;2022-07-05T00:32:49;102040.00;;;13.04;78.20
73341;BME280;61578;52.002;5.468;2022-07-05T00:33:20;102053.88;;;13.10;78.40
73341;BME280;61578;52.002;5.468;2022-07-05T00:33:51;102062.41;;;13.17;78.48
73341;BME280;61578;52.002;5.468;2022-07-05T00:34:21;102057.94;;;13.17;77.85
73341;BME280;61578;52.002;5.468;2022-07-05T00:34:52;102063.28;;;13.17;78.51
73341;BME280;61578;52.002;5.468;2022-07-05T00:35:23;102062.50;;;13.15;78.84
73341;BME280;61578;52.002;5.468;2022-07-05T00:35:54;102061.47;;;13.18;78.55
73341;BME280;61578;52.002;5.468;2022-07-05T00:36:24;102063.97;;;13.21;78.30
73341;BME280;61578;52.002;5.468;2022-07-05T00:36:55;102063.13;;;13.20;78.12
73341;BME280;61578;52.002;5.468;2022-07-05T00:37:26;102070.25;;;13.20;78.14
73341;BME280;61578;52.002;5.468;2022-07-05T00:37:56;102067.75;;;13.17;77.82
73341;BME280;61578;52.002;5.468;2022-07-05T00:38:27;102063.34;;;13.16;77.89
73341;BME280;61578;52.002;5.468;2022-07-05T00:38:58;102060.84;;;13.13;77.95
73341;BME280;61578;52.002;5.468;2022-07-05T00:39:28;102052.38;;;13.05;78.03
73341;BME280;61578;52.002;5.468;2022-07-05T00:39:59;102071.69;;;13.10;78.21
73341;BME280;61578;52.002;5.468;2022-07-05T00:40:30;102048.28;;;12.99;78.37
73341;BME280;61578;52.002;5.468;2022-07-05T00:41:01;102066.50;;;13.07;78.40
73341;BME280;61578;52.002;5.468;2022-07-05T00:41:32;102042.38;;;12.93;78.28
73341;BME280;61578;52.002;5.468;2022-07-05T00:42:03;102056.25;;;12.99;77.97
73341;BME280;61578;52.002;5.468;2022-07-05T00:42:34;102061.53;;;13.01;78.56
73341;BME280;61578;52.002;5.468;2022-07-05T00:43:05;102065.72;;;13.05;77.97
73341;BME280;61578;52.002;5.468;2022-07-05T00:43:36;102060.47;;;13.03;78.37
73341;BME280;61578;52.002;5.468;2022-07-05T00:44:09;102068.22;;;13.08;78.93
73341;BME280;61578;52.002;5.468;2022-07-05T00:44:41;102076.31;;;13.06;78.75
73341;BME280;61578;52.002;5.468;2022-07-05T00:45:12;102069.16;;;13.07;78.15
73341;BME280;61578;52.002;5.468;2022-07-05T00:45:42;102071.84;;;13.07;78.17
73341;BME280;61578;52.002;5.468;2022-07-05T00:46:13;102071.84;;;13.07;78.66
73341;BME280;61578;52.002;5.468;2022-07-05T00:46:44;102067.38;;;13.07;78.87
73341;BME280;61578;52.002;5.468;2022-07-05T00:47:15;102070.97;;;13.06;78.35
73341;BME280;61578;52.002;5.468;2022-07-05T00:47:46;102070.09;;;13.06;78.53
73341;BME280;61578;52.002;5.468;2022-07-05T00:48:16;102064.09;;;13.02;78.82
73341;BME280;61578;52.002;5.468;2022-07-05T00:48:48;102048.34;;;12.98;78.69
73341;BME280;61578;52.002;5.468;2022-07-05T00:49:18;102063.06;;;13.05;78.40
73341;BME280;61578;52.002;5.468;2022-07-05T00:49:49;102018.16;;;12.81;78.71
73341;BME280;61578;52.002;5.468;2022-07-05T00:50:20;102059.72;;;13.01;78.16
73341;BME280;61578;52.002;5.468;2022-07-05T00:50:51;102046.69;;;12.95;78.79
73341;BME280;61578;52.002;5.468;2022-07-05T00:51:23;102061.16;;;13.07;78.77
73341;BME280;61578;52.002;5.468;2022-07-05T00:51:55;102063.06;;;13.05;78.34
73341;BME280;61578;52.002;5.468;2022-07-05T00:52:26;102028.53;;;12.86;78.05
73341;BME280;61578;52.002;5.468;2022-07-05T00:52:57;102058.78;;;13.02;78.58
73341;BME280;61578;52.002;5.468;2022-07-05T00:53:28;102061.44;;;13.02;78.23
73341;BME280;61578;52.002;5.468;2022-07-05T00:54:00;102062.38;;;13.01;78.17
73341;BME280;61578;52.002;5.468;2022-07-05T00:54:37;102064.25;;;12.99;78.52
73341;BME280;61578;52.002;5.468;2022-07-05T00:55:08;102062.97;;;12.90;78.42
73341;BME280;61578;52.002;5.468;2022-07-05T00:55:39;102049.78;;;12.87;78.64
73341;BME280;61578;52.002;5.468;2022-07-05T00:56:12;102052.47;;;12.87;78.54
73341;BME280;61578;52.002;5.468;2022-07-05T00:56:43;102060.88;;;12.96;78.65
73341;BME280;61578;52.002;5.468;2022-07-05T00:57:14;102067.16;;;12.95;78.71
73341;BME280;61578;52.002;5.468;2022-07-05T00:57:46;102061.91;;;12.93;78.37
73341;BME280;61578;52.002;5.468;2022-07-05T00:58:16;102032.56;;;12.77;78.92
73341;BME280;61578;52.002;5.468;2022-07-05T00:58:47;102068.09;;;12.94;78.61
73341;BME280;61578;52.002;5.468;2022-07-05T00:59:19;102056.16;;;12.85;79.16
73341;BME280;61578;52.002;5.468;2022-07-05T00:59:50;102074.38;;;12.93;79.22
73341;BME280;61578;52.002;5.468;2022-07-05T01:00:21;102068.09;;;12.94;78.89
73341;BME280;61578;52.002;5.468;2022-07-05T01:00:52;102069.91;;;12.93;78.93
73341;BME280;61578;52.002;5.468;2022-07-05T01:01:26;102044.81;;;12.81;78.98
73341;BME280;61578;52.002;5.468;2022-07-05T01:01:57;102047.56;;;12.80;78.55
73341;BME280;61578;52.002;5.468;2022-07-05T01:02:29;102062.78;;;12.94;78.78
73341;BME280;61578;52.002;5.468;2022-07-05T01:03:00;102042.13;;;12.81;79.09
73341;BME280;61578;52.002;5.468;2022-07-05T01:03:32;102057.88;;;12.86;79.34
73341;BME280;61578;52.002;5.468;2022-07-05T01:04:03;102056.06;;;12.86;79.33
73341;BME280;61578;52.002;5.468;2022-07-05T01:04:34;102062.78;;;12.94;79.31
73341;BME280;61578;52.002;5.468;2022-07-05T01:05:05;102065.38;;;12.95;79.44
73341;BME280;61578;52.002;5.468;2022-07-05T01:05:36;102060.88;;;12.96;79.35
73341;BME280;61578;52.002;5.468;2022-07-05T01:06:10;102062.53;;;12.98;78.98
73341;BME280;61578;52.002;5.468;2022-07-05T01:06:46;102056.34;;;12.98;78.67
73341;BME280;61578;52.002;5.468;2022-07-05T01:07:21;102046.69;;;12.95;78.84
73341;BME280;61578;52.002;5.468;2022-07-05T01:07:55;102053.69;;;12.98;78.78
73341;BME280;61578;52.002;5.468;2022-07-05T01:08:30;102041.44;;;12.94;78.84
73341;BME280;61578;52.002;5.468;2022-07-05T01:09:05;102065.78;;;13.03;79.22
73341;BME280;61578;52.002;5.468;2022-07-05T01:09:35;102064.97;;;13.03;78.93
73341;BME280;61578;52.002;5.468;2022-07-05T01:10:06;102064.00;;;13.04;79.24
73341;BME280;61578;52.002;5.468;2022-07-05T01:10:38;102038.91;;;12.92;78.57
73341;BME280;61578;52.002;5.468;2022-07-05T01:11:14;102056.25;;;12.99;78.99
73341;BME280;61578;52.002;5.468;2022-07-05T01:11:46;102062.31;;;13.03;78.77
73341;BME280;61578;52.002;5.468;2022-07-05T01:12:18;102053.44;;;13.02;78.95
73341;BME280;61578;52.002;5.468;2022-07-05T01:12:49;102056.25;;;12.99;78.72
73341;BME280;61578;52.002;5.468;2022-07-05T01:13:21;102057.06;;;13.01;79.02
73341;BME280;61578;52.002;5.468;2022-07-05T01:13:53;102052.03;;;12.95;79.34
73341;BME280;61578;52.002;5.468;2022-07-05T01:14:23;102058.94;;;12.99;79.00
73341;BME280;61578;52.002;5.468;2022-07-05T01:14:55;102044.03;;;12.95;78.60
73341;BME280;61578;52.002;5.468;2022-07-05T01:15:27;102057.06;;;13.01;78.88
73341;BME280;61578;52.002;5.468;2022-07-05T01:15:59;102061.69;;;12.98;78.77
73341;BME280;61578;52.002;5.468;2022-07-05T01:16:30;102029.69;;;12.82;79.07
73341;BME280;61578;52.002;5.468;2022-07-05T01:17:01;102060.88;;;12.96;79.27
73341;BME280;61578;52.002;5.468;2022-07-05T01:17:34;102057.38;;;12.95;79.16
73341;BME280;61578;52.002;5.468;2022-07-05T01:18:08;102061.06;;;12.93;78.78
73341;BME280;61578;52.002;5.468;2022-07-05T01:18:41;102050.72;;;12.86;79.00
73341;BME280;61578;52.002;5.468;2022-07-05T01:19:13;102045.66;;;12.82;78.99
73341;BME280;61578;52.002;5.468;2022-07-05T01:19:44;102062.25;;;12.87;79.06
73341;BME280;61578;52.002;5.468;2022-07-05T01:20:15;102040.81;;;12.73;79.25
73341;BME280;61578;52.002;5.468;2022-07-05T01:20:48;102050.22;;;12.80;79.33
73341;BME280;61578;52.002;5.468;2022-07-05T01:21:22;102049.94;;;12.84;79.27
73341;BME280;61578;52.002;5.468;2022-07-05T01:21:57;102052.63;;;12.84;79.25
73341;BME280;61578;52.002;5.468;2022-07-05T01:22:51;102048.56;;;12.77;79.47
73341;BME280;61578;52.002;5.468;2022-07-05T01:23:23;102063.81;;;12.91;79.85
73341;BME280;61578;52.002;5.468;2022-07-05T01:23:58;102046.34;;;12.85;79.68
73341;BME280;61578;52.002;5.468;2022-07-05T01:24:29;102042.81;;;12.85;79.41
73341;BME280;61578;52.002;5.468;2022-07-05T01:25:00;102062.69;;;12.95;79.37
73341;BME280;61578;52.002;5.468;2022-07-05T01:25:31;102042.75;;;12.86;79.29
73341;BME280;61578;52.002;5.468;2022-07-05T01:26:02;102026.47;;;12.75;79.41
73341;BME280;61578;52.002;5.468;2022-07-05T01:26:33;102058.38;;;12.93;79.34
73341;BME280;61578;52.002;5.468;2022-07-05T01:27:05;102064.56;;;12.93;79.52
73341;BME280;61578;52.002;5.468;2022-07-05T01:27:37;102063.63;;;12.94;79.75
73341;BME280;61578;52.002;5.468;2022-07-05T01:28:08;102065.44;;;12.94;79.62
73341;BME280;61578;52.002;5.468;2022-07-05T01:28:39;102062.78;;;12.94;79.04
73341;BME280;61578;52.002;5.468;2022-07-05T01:29:09;102059.34;;;12.92;79.19
73341;BME280;61578;52.002;5.468;2022-07-05T01:29:41;102061.16;;;12.91;79.16
73341;BME280;61578;52.002;5.468;2022-07-05T01:30:13;102042.22;;;12.80;79.04
73341;BME280;61578;52.002;5.468;2022-07-05T01:30:46;102053.06;;;12.93;79.38
73341;BME280;61578;52.002;5.468;2022-07-05T01:31:17;102061.91;;;12.93;79.37
73341;BME280;61578;52.002;5.468;2022-07-05T01:31:47;102059.34;;;12.92;79.56
73341;BME280;61578;52.002;5.468;2022-07-05T01:32:18;102049.09;;;12.84;79.34
73341;BME280;61578;52.002;5.468;2022-07-05T01:32:49;102051.69;;;12.85;79.30
73341;BME280;61578;52.002;5.468;2022-07-05T01:33:27;102047.47;;;12.81;79.78
73341;BME280;61578;52.002;5.468;2022-07-05T01:34:01;102054.88;;;12.92;79.68
73341;BME280;61578;52.002;5.468;2022-07-05T01:34:32;102051.00;;;12.82;79.88
73341;BME280;61578;52.002;5.468;2022-07-05T01:35:08;102051.25;;;12.93;79.62
73341;BME280;61578;52.002;5.468;2022-07-05T01:35:40;102062.78;;;12.94;79.32
73341;BME280;61578;52.002;5.468;2022-07-05T01:36:13;102047.03;;;12.89;78.89
73341;BME280;61578;52.002;5.468;2022-07-05T01:36:44;102039.63;;;12.78;79.33
73341;BME280;61578;52.002;5.468;2022-07-05T01:37:15;102040.66;;;12.76;79.49
73341;BME280;61578;52.002;5.468;2022-07-05T01:37:48;102056.94;;;12.87;79.64
73341;BME280;61578;52.002;5.468;2022-07-05T01:38:19;102066.66;;;12.88;79.50
73341;BME280;61578;52.002;5.468;2022-07-05T01:38:50;102064.22;;;12.83;79.74
73341;BME280;61578;52.002;5.468;2022-07-05T01:39:21;102063.19;;;12.86;79.76
73341;BME280;61578;52.002;5.468;2022-07-05T01:39:52;102066.81;;;12.85;79.78
73341;BME280;61578;52.002;5.468;2022-07-05T01:40:23;102050.44;;;12.75;79.91
73341;BME280;61578;52.002;5.468;2022-07-05T01:40:54;102055.34;;;12.83;80.21
73341;BME280;61578;52.002;5.468;2022-07-05T01:41:25;102057.28;;;12.81;79.59
73341;BME280;61578;52.002;5.468;2022-07-05T01:41:55;102031.34;;;12.67;80.28
73341;BME280;61578;52.002;5.468;2022-07-05T01:42:26;102056.94;;;12.87;80.35
73341;BME280;61578;52.002;5.468;2022-07-05T01:42:57;102060.38;;;12.89;79.98
73341;BME280;61578;52.002;5.468;2022-07-05T01:43:29;102042.13;;;12.81;79.83
73341;BME280;61578;52.002;5.468;2022-07-05T01:44:00;102065.63;;;12.90;79.83
73341;BME280;61578;52.002;5.468;2022-07-05T01:44:32;102054.97;;;12.90;79.79
73341;BME280;61578;52.002;5.468;2022-07-05T01:45:03;102056.78;;;12.90;79.69
73341;BME280;61578;52.002;5.468;2022-07-05T01:45:34;102058.50;;;12.91;79.88
73341;BME280;61578;52.002;5.468;2022-07-05T01:46:15;102060.22;;;12.92;79.96
73341;BME280;61578;52.002;5.468;2022-07-05T01:46:55;102053.25;;;12.89;79.84
73341;BME280;61578;52.002;5.468;2022-07-05T01:47:36;102056.69;;;12.92;79.64
73341;BME280;61578;52.002;5.468;2022-07-05T01:48:18;102036.97;;;12.78;79.60
73341;BME280;61578;52.002;5.468;2022-07-05T01:48:55;102055.19;;;12.86;79.73
73341;BME280;61578;52.002;5.468;2022-07-05T01:49:31;102055.97;;;12.88;79.55
73341;BME280;61578;52.002;5.468;2022-07-05T01:50:08;102040.41;;;12.80;80.20
73341;BME280;61578;52.002;5.468;2022-07-05T01:50:46;102061.41;;;12.86;80.08
73341;BME280;61578;52.002;5.468;2022-07-05T01:51:31;102054.34;;;12.85;80.20
73341;BME280;61578;52.002;5.468;2022-07-05T01:52:09;102053.56;;;12.83;79.91
73341;BME280;61578;52.002;5.468;2022-07-05T01:52:46;102059.75;;;12.84;79.83
73341;BME280;61578;52.002;5.468;2022-07-05T01:53:24;102039.94;;;12.72;80.31
73341;BME280;61578;52.002;5.468;2022-07-05T01:53:59;102048.91;;;12.71;80.30
73341;BME280;61578;52.002;5.468;2022-07-05T01:54:29;102059.94;;;12.81;80.54
73341;BME280;61578;52.002;5.468;2022-07-05T01:55:00;102050.53;;;12.74;80.08
73341;BME280;61578;52.002;5.468;2022-07-05T01:55:32;102070.69;;;12.79;80.28
73341;BME280;61578;52.002;5.468;2022-07-05T01:56:03;102064.41;;;12.80;81.07
73341;BME280;61578;52.002;5.468;2022-07-05T01:56:36;102057.44;;;12.78;80.59
73341;BME280;61578;52.002;5.468;2022-07-05T01:57:09;102038.41;;;12.68;80.21
73341;BME280;61578;52.002;5.468;2022-07-05T01:57:40;102058.22;;;12.80;80.13
73341;BME280;61578;52.002;5.468;2022-07-05T01:58:11;102060.88;;;12.80;79.98
73341;BME280;61578;52.002;5.468;2022-07-05T01:58:42;102065.16;;;12.82;79.98
73341;BME280;61578;52.002;5.468;2022-07-05T01:59:14;102045.13;;;12.75;80.27
73341;BME280;61578;52.002;5.468;2022-07-05T01:59:45;102058.13;;;12.81;80.11
73341;BME280;61578;52.002;5.468;2022-07-05T02:00:15;102060.81;;;12.81;80.50
73341;BME280;61578;52.002;5.468;2022-07-05T02:00:48;102023.00;;;12.58;80.90
73341;BME280;61578;52.002;5.468;2022-07-05T02:01:41;102058.72;;;12.86;80.60
73341;BME280;61578;52.002;5.468;2022-07-05T02:02:11;102051.31;;;12.76;79.85
73341;BME280;61578;52.002;5.468;2022-07-05T02:02:42;102065.94;;;12.84;80.24
73341;BME280;61578;52.002;5.468;2022-07-05T02:03:16;102071.28;;;12.84;79.98
73341;BME280;61578;52.002;5.468;2022-07-05T02:03:50;102051.06;;;12.80;80.40
73341;BME280;61578;52.002;5.468;2022-07-05T02:04:21;102064.22;;;12.83;80.72
73341;BME280;61578;52.002;5.468;2022-07-05T02:04:52;102061.47;;;12.85;80.61
73341;BME280;61578;52.002;5.468;2022-07-05T02:05:22;102063.19;;;12.86;80.45
73341;BME280;61578;52.002;5.468;2022-07-05T02:05:53;102030.25;;;12.71;80.00
73341;BME280;61578;52.002;5.468;2022-07-05T02:06:24;102044.09;;;12.78;80.50
73341;BME280;61578;52.002;5.468;2022-07-05T02:06:55;102053.31;;;12.88;80.38
73341;BME280;61578;52.002;5.468;2022-07-05T02:07:26;102050.81;;;12.85;80.64
73341;BME280;61578;52.002;5.468;2022-07-05T02:07:57;102057.94;;;12.84;80.42
73341;BME280;61578;52.002;5.468;2022-07-05T02:08:29;102048.34;;;12.82;80.70
73341;BME280;61578;52.002;5.468;2022-07-05T02:09:04;102049.00;;;12.85;80.51
73341;BME280;61578;52.002;5.468;2022-07-05T02:09:37;102053.31;;;12.88;80.49
73341;BME280;61578;52.002;5.468;2022-07-05T02:10:08;102031.56;;;12.80;79.90
73341;BME280;61578;52.002;5.468;2022-07-05T02:10:40;102049.09;;;12.84;79.92
73341;BME280;61578;52.002;5.468;2022-07-05T02:11:12;102023.22;;;12.70;80.17
73341;BME280;61578;52.002;5.468;2022-07-05T02:11:42;102054.09;;;12.90;80.60
73341;BME280;61578;52.002;5.468;2022-07-05T02:12:13;102055.81;;;12.91;80.99
73341;BME280;61578;52.002;5.468;2022-07-05T02:12:43;102035.09;;;12.80;80.57
73341;BME280;61578;52.002;5.468;2022-07-05T02:13:14;102058.31;;;12.94;80.41
73341;BME280;61578;52.002;5.468;2022-07-05T02:13:45;102040.94;;;12.87;80.36
73341;BME280;61578;52.002;5.468;2022-07-05T02:14:16;102052.22;;;12.92;80.45
73341;BME280;61578;52.002;5.468;2022-07-05T02:14:46;102044.31;;;12.90;80.72
73341;BME280;61578;52.002;5.468;2022-07-05T02:15:17;102029.69;;;12.82;80.86
73341;BME280;61578;52.002;5.468;2022-07-05T02:15:48;102052.91;;;12.96;80.44
73341;BME280;61578;52.002;5.468;2022-07-05T02:16:22;102056.50;;;12.95;80.50
73341;BME280;61578;52.002;5.468;2022-07-05T02:16:54;102052.13;;;12.94;80.71
73341;BME280;61578;52.002;5.468;2022-07-05T02:17:24;102046.19;;;12.88;80.43
73341;BME280;61578;52.002;5.468;2022-07-05T02:17:55;102052.81;;;12.97;80.86
73341;BME280;61578;52.002;5.468;2022-07-05T02:18:25;102056.34;;;12.98;80.52
73341;BME280;61578;52.002;5.468;2022-07-05T02:18:56;102051.00;;;12.98;80.76
73341;BME280;61578;52.002;5.468;2022-07-05T02:19:28;102051.16;;;12.95;80.62
73341;BME280;61578;52.002;5.468;2022-07-05T02:19:59;102052.03;;;12.95;81.04
73341;BME280;61578;52.002;5.468;2022-07-05T02:20:31;102055.41;;;12.99;80.65
73341;BME280;61578;52.002;5.468;2022-07-05T02:21:03;102045.06;;;12.93;81.26
73341;BME280;61578;52.002;5.468;2022-07-05T02:21:33;102053.53;;;13.01;80.67
73341;BME280;61578;52.002;5.468;2022-07-05T02:22:04;102039.13;;;12.87;80.65
73341;BME280;61578;52.002;5.468;2022-07-05T02:22:35;102057.28;;;12.97;80.99
73341;BME280;61578;52.002;5.468;2022-07-05T02:23:06;102056.19;;;13.01;81.25
73341;BME280;61578;52.002;5.468;2022-07-05T02:23:37;102057.06;;;13.01;80.65
73341;BME280;61578;52.002;5.468;2022-07-05T02:24:09;102036.13;;;12.94;80.65
73341;BME280;61578;52.002;5.468;2022-07-05T02:24:39;102051.78;;;13.00;80.56
73341;BME280;61578;52.002;5.468;2022-07-05T02:25:10;102052.66;;;13.00;80.46
73341;BME280;61578;52.002;5.468;2022-07-05T02:25:41;102057.63;;;13.06;80.73
73341;BME280;61578;52.002;5.468;2022-07-05T02:26:11;102059.28;;;13.09;80.89
73341;BME280;61578;52.002;5.468;2022-07-05T02:26:42;102057.56;;;13.08;80.78
73341;BME280;61578;52.002;5.468;2022-07-05T02:27:13;102057.56;;;13.08;80.43
73341;BME280;61578;52.002;5.468;2022-07-05T02:27:43;102045.44;;;13.02;80.41
73341;BME280;61578;52.002;5.468;2022-07-05T02:28:14;102059.38;;;13.07;80.38
73341;BME280;61578;52.002;5.468;2022-07-05T02:28:45;102060.31;;;13.06;81.01
73341;BME280;61578;52.002;5.468;2022-07-05T02:29:16;102042.16;;;12.97;80.63
73341;BME280;61578;52.002;5.468;2022-07-05T02:29:47;102065.56;;;13.08;80.53
73341;BME280;61578;52.002;5.468;2022-07-05T02:30:19;102032.59;;;12.93;80.01
73341;BME280;61578;52.002;5.468;2022-07-05T02:30:50;102061.16;;;13.07;80.29
73341;BME280;61578;52.002;5.468;2022-07-05T02:31:20;102039.41;;;12.99;80.77
73341;BME280;61578;52.002;5.468;2022-07-05T02:31:51;102057.63;;;13.06;80.93
73341;BME280;61578;52.002;5.468;2022-07-05T02:32:22;102057.63;;;13.06;80.74
73341;BME280;61578;52.002;5.468;2022-07-05T02:32:53;102069.94;;;13.09;80.29
73341;BME280;61578;52.002;5.468;2022-07-05T02:33:23;102059.38;;;13.07;80.78
73341;BME280;61578;52.002;5.468;2022-07-05T02:33:54;102063.75;;;13.08;80.98
73341;BME280;61578;52.002;5.468;2022-07-05T02:34:25;102067.13;;;13.12;80.91
73341;BME280;61578;52.002;5.468;2022-07-05T02:34:56;102047.06;;;13.05;81.24
73341;BME280;61578;52.002;5.468;2022-07-05T02:35:27;102067.84;;;13.15;80.55
73341;BME280;61578;52.002;5.468;2022-07-05T02:36:05;102048.97;;;13.03;80.77
73341;BME280;61578;52.002;5.468;2022-07-05T02:36:40;102062.41;;;13.17;80.74
73341;BME280;61578;52.002;5.468;2022-07-05T02:37:10;102062.50;;;13.15;81.00
73341;BME280;61578;52.002;5.468;2022-07-05T02:37:41;102071.19;;;13.19;80.55
73341;BME280;61578;52.002;5.468;2022-07-05T02:38:12;102067.59;;;13.20;80.74
73341;BME280;61578;52.002;5.468;2022-07-05T02:38:42;102065.88;;;13.19;81.01
73341;BME280;61578;52.002;5.468;2022-07-05T02:39:13;102069.31;;;13.21;80.82
73341;BME280;61578;52.002;5.468;2022-07-05T02:39:44;102072.75;;;13.23;80.80
73341;BME280;61578;52.002;5.468;2022-07-05T02:40:14;102063.13;;;13.20;80.78
73341;BME280;61578;52.002;5.468;2022-07-05T02:40:45;102063.91;;;13.22;80.70
73341;BME280;61578;52.002;5.468;2022-07-05T02:41:16;102068.97;;;13.27;81.07
73341;BME280;61578;52.002;5.468;2022-07-05T02:41:47;102069.75;;;13.29;80.43
73341;BME280;61578;52.002;5.468;2022-07-05T02:42:18;102048.13;;;13.18;80.71
73341;BME280;61578;52.002;5.468;2022-07-05T02:42:48;102064.31;;;13.31;81.26
73341;BME280;61578;52.002;5.468;2022-07-05T02:43:19;102053.97;;;13.24;80.90
73341;BME280;61578;52.002;5.468;2022-07-05T02:43:51;102062.53;;;13.31;80.56
73341;BME280;61578;52.002;5.468;2022-07-05T02:44:22;102052.25;;;13.23;80.83
73341;BME280;61578;52.002;5.468;2022-07-05T02:44:53;102065.19;;;13.31;80.50
73341;BME280;61578;52.002;5.468;2022-07-05T02:45:23;102060.72;;;13.32;80.33
73341;BME280;61578;52.002;5.468;2022-07-05T02:45:54;102063.31;;;13.33;80.57
73341;BME280;61578;52.002;5.468;2022-07-05T02:46:25;102058.91;;;13.32;80.77